createdAt,value
2023-01-17T00:00:12.980Z,4.21
2023-01-17T00:03:04.895Z,4.19
2023-01-17T00:05:52.108Z,4.19
2023-01-17T00:08:55.716Z,4.15
2023-01-17T00:11:26.674Z,4.12
2023-01-17T00:13:58.539Z,4.07
2023-01-17T00:16:27.126Z,4.03
2023-01-17T00:19:16.780Z,4.00
2023-01-17T00:22:07.597Z,4.00
2023-01-17T00:25:00.807Z,4.03
2023-01-17T00:27:30.367Z,4.05
2023-01-17T00:30:03.679Z,4.02
2023-01-17T00:32:32.150Z,3.98
2023-01-17T00:35:03.205Z,3.96
2023-01-17T00:37:31.619Z,3.97
2023-01-17T00:40:02.599Z,4.00
2023-01-17T00:42:35.957Z,4.04
2023-01-17T00:45:34.325Z,4.06
2023-01-17T00:48:24.461Z,4.12
2023-01-17T00:51:12.665Z,4.16
2023-01-17T00:54:02.270Z,4.23
2023-01-17T00:56:49.417Z,4.32
2023-01-17T00:59:36.477Z,4.43
2023-01-17T01:02:29.179Z,4.54
2023-01-17T01:05:18.924Z,4.62
2023-01-17T01:08:08.604Z,4.66
2023-01-17T01:11:00.759Z,4.68
2023-01-17T01:13:54.144Z,4.66
2023-01-17T01:16:41.153Z,4.65
2023-01-17T01:19:28.189Z,4.64
2023-01-17T01:22:20.837Z,4.68
2023-01-17T01:25:08.005Z,4.70
2023-01-17T01:27:55.208Z,4.67
2023-01-17T01:30:42.751Z,4.67
2023-01-17T01:33:21.021Z,4.67
2023-01-17T01:35:55.207Z,4.66
2023-01-17T01:38:25.618Z,4.70
2023-01-17T01:40:58.817Z,4.75
2023-01-17T01:43:39.835Z,4.78
2023-01-17T01:46:11.807Z,4.80
2023-01-17T01:49:13.406Z,4.78
2023-01-17T01:51:46.588Z,4.78
2023-01-17T01:54:25.962Z,4.72
2023-01-17T01:56:57.878Z,4.64
2023-01-17T01:59:26.979Z,4.61
2023-01-17T02:02:01.360Z,4.64
2023-01-17T02:04:35.508Z,4.69
2023-01-17T02:07:15.485Z,4.75
2023-01-17T02:09:45.051Z,4.84
2023-01-17T02:12:13.973Z,4.88
2023-01-17T02:14:44.962Z,4.88
2023-01-17T02:17:31.706Z,4.88
2023-01-17T02:20:28.534Z,4.93
2023-01-17T02:23:15.489Z,5.04
2023-01-17T02:25:53.083Z,5.13
2023-01-17T02:28:49.671Z,5.18
2023-01-17T02:31:46.148Z,5.22
2023-01-17T02:34:28.844Z,5.20
2023-01-17T02:37:24.245Z,5.17
2023-01-17T02:40:06.531Z,5.11
2023-01-17T02:42:42.419Z,5.09
2023-01-17T02:45:18.422Z,5.13
2023-01-17T02:47:47.079Z,5.15
2023-01-17T02:50:19.658Z,5.16
2023-01-17T02:52:57.085Z,5.13
2023-01-17T02:55:58.744Z,5.12
2023-01-17T02:58:56.112Z,5.13
2023-01-17T03:01:59.847Z,5.12
2023-01-17T03:05:12.428Z,5.11
2023-01-17T03:07:44.482Z,5.11
2023-01-17T03:10:17.302Z,5.13
2023-01-17T03:12:46.878Z,5.16
2023-01-17T03:15:17.798Z,5.19
2023-01-17T03:17:49.854Z,5.21
2023-01-17T03:20:18.492Z,5.22
2023-01-17T03:22:47.205Z,5.22
2023-01-17T03:25:16.915Z,5.24
2023-01-17T03:27:45.536Z,5.22
2023-01-17T03:30:14.540Z,5.22
2023-01-17T03:32:46.996Z,5.28
2023-01-17T03:35:21.256Z,5.32
2023-01-17T03:37:52.750Z,5.34
2023-01-17T03:40:23.904Z,5.37
2023-01-17T03:42:52.625Z,5.38
2023-01-17T03:45:21.288Z,5.36
2023-01-17T03:47:49.945Z,5.33
2023-01-17T03:50:18.563Z,5.30
2023-01-17T03:52:53.891Z,5.29
2023-01-17T03:55:22.459Z,5.30
2023-01-17T03:57:51.008Z,5.31
2023-01-17T04:00:21.045Z,5.31
2023-01-17T04:02:50.669Z,5.31
2023-01-17T04:05:20.078Z,5.28
2023-01-17T04:07:48.622Z,5.26
2023-01-17T04:10:18.480Z,5.26
2023-01-17T04:12:47.304Z,5.29
2023-01-17T04:15:20.582Z,5.31
2023-01-17T04:17:49.264Z,5.32
2023-01-17T04:20:29.779Z,5.34
2023-01-17T04:23:04.534Z,5.35
2023-01-17T04:25:40.883Z,5.30
2023-01-17T04:28:18.416Z,5.23
2023-01-17T04:30:58.214Z,5.27
2023-01-17T04:33:26.864Z,5.31
2023-01-17T04:35:55.937Z,5.31
2023-01-17T04:38:27.634Z,5.30
2023-01-17T04:41:01.580Z,5.29
2023-01-17T04:43:32.496Z,5.29
2023-01-17T04:46:10.919Z,5.31
2023-01-17T04:48:39.613Z,5.35
2023-01-17T04:51:08.275Z,5.40
2023-01-17T04:53:42.141Z,5.48
2023-01-17T04:56:13.354Z,5.50
2023-01-17T04:58:42.120Z,5.52
2023-01-17T05:01:13.750Z,5.57
2023-01-17T05:03:44.604Z,5.65
2023-01-17T05:06:13.141Z,5.71
2023-01-17T05:08:52.515Z,5.80
2023-01-17T05:11:21.135Z,5.88
2023-01-17T05:13:52.474Z,5.95
2023-01-17T05:16:21.269Z,5.98
2023-01-17T05:18:58.622Z,5.98
2023-01-17T05:21:27.114Z,5.98
2023-01-17T05:23:58.799Z,5.96
2023-01-17T05:26:27.319Z,5.94
2023-01-17T05:28:55.806Z,5.92
2023-01-17T05:31:24.439Z,5.92
2023-01-17T05:33:52.922Z,6.01
2023-01-17T05:36:21.495Z,6.24
2023-01-17T05:38:50.151Z,6.45
2023-01-17T05:41:18.742Z,6.58
2023-01-17T05:43:47.267Z,6.68
2023-01-17T05:46:16.491Z,6.77
2023-01-17T05:48:45.047Z,6.91
2023-01-17T05:51:13.536Z,7.04
2023-01-17T05:53:42.014Z,7.16
2023-01-17T05:56:10.743Z,7.18
2023-01-17T05:58:40.334Z,6.97
2023-01-17T06:01:08.954Z,6.65
2023-01-17T06:03:37.938Z,6.41
2023-01-17T06:06:11.603Z,6.24
2023-01-17T06:08:40.640Z,6.12
2023-01-17T06:11:09.332Z,6.01
2023-01-17T06:13:37.929Z,5.93
2023-01-17T06:16:06.968Z,5.88
2023-01-17T06:18:35.715Z,5.82
2023-01-17T06:21:05.451Z,5.75
2023-01-17T06:23:35.057Z,5.69
2023-01-17T06:26:05.045Z,5.65
2023-01-17T06:28:34.254Z,5.64
2023-01-17T06:31:08.124Z,5.60
2023-01-17T06:33:37.868Z,5.61
2023-01-17T06:36:06.576Z,5.57
2023-01-17T06:38:38.287Z,5.52
2023-01-17T06:41:07.056Z,5.45
2023-01-17T06:43:35.863Z,5.40
2023-01-17T06:46:05.303Z,5.40
2023-01-17T06:48:34.100Z,5.41
2023-01-17T06:51:02.637Z,5.40
2023-01-17T06:53:31.435Z,5.36
2023-01-17T06:56:00.595Z,5.34
2023-01-17T06:58:29.199Z,5.30
2023-01-17T07:00:57.892Z,5.29
2023-01-17T07:03:27.481Z,5.30
2023-01-17T07:06:01.420Z,5.29
2023-01-17T07:08:35.376Z,5.33
2023-01-17T07:11:06.810Z,5.37
2023-01-17T07:13:43.846Z,5.41
2023-01-17T07:16:13.556Z,5.44
2023-01-17T07:22:13.232Z,5.48
2023-01-17T07:24:48.940Z,5.49
2023-01-17T07:27:17.574Z,5.54
2023-01-17T07:29:54.206Z,5.58
2023-01-17T07:32:32.036Z,5.58
2023-01-17T07:35:06.332Z,5.54
2023-01-17T07:37:56.512Z,5.45
2023-01-17T07:40:29.138Z,5.41
2023-01-17T07:43:16.926Z,5.39
2023-01-17T07:45:53.506Z,5.42
2023-01-17T07:48:25.542Z,5.49
2023-01-17T07:50:58.744Z,5.54
2023-01-17T07:53:30.021Z,5.65
2023-01-17T07:59:24.182Z,5.81
2023-01-17T08:01:55.867Z,5.84
2023-01-17T08:04:35.378Z,5.88
2023-01-17T08:07:07.062Z,5.93
2023-01-17T08:09:39.295Z,5.95
2023-01-17T08:12:19.405Z,5.95
2023-01-17T08:14:48.006Z,5.97
2023-01-17T08:17:20.618Z,6.02
2023-01-17T08:19:53.328Z,6.08
2023-01-17T08:22:22.620Z,6.17
2023-01-17T08:25:01.584Z,6.21
2023-01-17T08:27:37.302Z,6.25
2023-01-17T08:30:31.930Z,6.34
2023-01-17T08:33:04.639Z,6.44
2023-01-17T08:35:35.570Z,6.55
2023-01-17T08:38:07.363Z,6.64
2023-01-17T08:40:36.036Z,6.79
2023-01-17T08:43:17.736Z,7.05
2023-01-17T08:45:50.525Z,7.47
2023-01-17T08:48:24.184Z,7.75
2023-01-17T08:51:04.159Z,7.85
2023-01-17T08:53:34.382Z,7.85
2023-01-17T08:56:05.475Z,7.88
2023-01-17T08:58:36.279Z,7.78
2023-01-17T09:01:10.449Z,7.73
2023-01-17T09:03:40.903Z,7.69
2023-01-17T09:06:12.840Z,7.59
2023-01-17T09:08:42.316Z,7.59
2023-01-17T09:11:13.005Z,7.54
2023-01-17T09:13:42.381Z,7.57
2023-01-17T09:16:15.324Z,7.61
2023-01-17T09:18:43.951Z,7.62
2023-01-17T09:21:22.755Z,7.67
2023-01-17T09:23:58.167Z,7.71
2023-01-17T09:26:30.538Z,7.74
2023-01-17T09:29:02.364Z,7.81
2023-01-17T09:31:34.279Z,7.90
2023-01-17T09:34:06.735Z,7.98
2023-01-17T09:36:35.587Z,8.04
2023-01-17T09:39:16.030Z,8.09
2023-01-17T09:41:50.736Z,8.14
2023-01-17T09:44:22.279Z,8.24
2023-01-17T09:47:03.454Z,8.35
2023-01-17T09:49:43.964Z,8.45
2023-01-17T09:52:21.212Z,8.51
2023-01-17T09:54:51.684Z,8.56
2023-01-17T09:57:23.043Z,8.60
2023-01-17T10:00:06.170Z,8.57
2023-01-17T10:02:54.030Z,8.58
2023-01-17T10:05:28.653Z,8.58
2023-01-17T10:08:34.084Z,8.64
2023-01-17T10:11:23.532Z,8.77
2023-01-17T10:14:20.498Z,8.94
2023-01-17T10:17:07.971Z,9.12
2023-01-17T10:20:04.348Z,9.29
2023-01-17T10:22:52.453Z,9.41
2023-01-17T10:25:43.275Z,9.48
2023-01-17T10:28:22.889Z,9.47
2023-01-17T10:31:06.338Z,9.54
2023-01-17T10:33:45.110Z,9.61
2023-01-17T10:36:26.448Z,9.64
2023-01-17T10:39:00.915Z,9.69
2023-01-17T10:41:33.963Z,9.71
2023-01-17T10:44:27.498Z,9.74
2023-01-17T10:47:06.136Z,9.74
2023-01-17T10:49:43.088Z,9.75
2023-01-17T10:52:37.498Z,9.78
2023-01-17T10:55:25.831Z,9.81
2023-01-17T10:57:55.461Z,9.82
2023-01-17T11:00:46.776Z,9.80
2023-01-17T11:03:17.663Z,9.78
2023-01-17T11:05:46.402Z,9.78
2023-01-17T11:08:15.228Z,9.80
2023-01-17T11:10:49.074Z,9.81
2023-01-17T11:13:34.417Z,9.80
2023-01-17T11:16:17.022Z,9.81
2023-01-17T11:18:45.988Z,9.85
2023-01-17T11:21:25.863Z,9.88
2023-01-17T11:23:59.045Z,9.93
2023-01-17T11:26:33.377Z,10.01
2023-01-17T11:29:37.498Z,10.12
2023-01-17T11:32:21.639Z,10.11
2023-01-17T11:38:27.741Z,9.97
2023-01-17T11:41:16.238Z,9.96
2023-01-17T11:43:59.201Z,10.03
2023-01-17T11:46:31.119Z,10.06
2023-01-17T11:49:02.320Z,10.07
2023-01-17T11:51:44.365Z,10.07
2023-01-17T11:54:26.028Z,10.13
2023-01-17T11:57:02.106Z,10.17
2023-01-17T11:59:37.784Z,10.13
2023-01-17T12:02:32.092Z,10.12
2023-01-17T12:05:06.004Z,10.10
2023-01-17T12:08:05.804Z,10.04
2023-01-17T12:10:56.443Z,9.99
2023-01-17T12:14:00.013Z,9.99
2023-01-17T12:16:50.559Z,10.01
2023-01-17T12:19:32.860Z,10.02
2023-01-17T12:22:35.295Z,10.05
2023-01-17T12:25:23.837Z,10.05
2023-01-17T12:28:27.250Z,10.05
2023-01-17T12:31:11.306Z,10.04
2023-01-17T12:33:59.080Z,10.01
2023-01-17T12:36:50.126Z,10.01
2023-01-17T12:39:22.740Z,10.04
2023-01-17T12:41:59.987Z,10.05
2023-01-17T12:44:51.981Z,10.01
2023-01-17T12:47:24.343Z,9.99
2023-01-17T12:49:52.955Z,10.02
2023-01-17T12:52:37.446Z,10.07
2023-01-17T12:55:12.360Z,10.11
2023-01-17T12:57:48.132Z,10.12
2023-01-17T13:00:23.302Z,10.12
2023-01-17T13:03:20.587Z,10.12
2023-01-17T13:05:53.507Z,10.15
2023-01-17T13:08:49.876Z,10.20
2023-01-17T13:11:28.808Z,10.24
2023-01-17T13:14:00.119Z,10.24
2023-01-17T13:16:59.031Z,10.26
2023-01-17T13:19:36.984Z,10.28
2023-01-17T13:22:10.046Z,10.30
2023-01-17T13:24:52.347Z,10.37
2023-01-17T13:27:39.950Z,10.44
2023-01-17T13:30:43.727Z,10.43
2023-01-17T13:33:39.376Z,10.35
2023-01-17T13:36:33.025Z,10.29
2023-01-17T13:39:40.743Z,10.28
2023-01-17T13:42:24.110Z,10.26
2023-01-17T13:44:52.891Z,10.23
2023-01-17T13:47:23.676Z,10.22
2023-01-17T13:49:56.650Z,10.19
2023-01-17T13:52:25.300Z,10.15
2023-01-17T13:54:56.452Z,10.07
2023-01-17T13:57:43.744Z,10.01
2023-01-17T14:00:34.224Z,9.95
2023-01-17T14:03:03.066Z,9.92
2023-01-17T14:05:31.470Z,9.91
2023-01-17T14:08:15.144Z,9.91
2023-01-17T14:10:53.987Z,9.95
2023-01-17T14:13:36.065Z,9.96
2023-01-17T14:16:29.330Z,9.91
2023-01-17T14:18:57.728Z,9.81
2023-01-17T14:21:32.220Z,9.72
2023-01-17T14:24:13.220Z,9.62
2023-01-17T14:26:51.725Z,9.53
2023-01-17T14:29:46.821Z,9.46
2023-01-17T14:32:19.204Z,9.34
2023-01-17T14:34:50.587Z,9.26
2023-01-17T14:37:22.939Z,9.20
2023-01-17T14:39:52.305Z,9.13
2023-01-17T14:42:24.465Z,9.03
2023-01-17T14:45:02.504Z,8.94
2023-01-17T14:47:35.395Z,8.87
2023-01-17T14:50:26.237Z,8.80
2023-01-17T14:53:13.570Z,8.72
2023-01-17T14:55:48.376Z,8.64
2023-01-17T14:58:23.952Z,8.57
2023-01-17T15:01:02.657Z,8.50
2023-01-17T15:03:35.859Z,8.44
2023-01-17T15:06:20.120Z,8.36
2023-01-17T15:08:50.270Z,8.27
2023-01-17T15:11:25.389Z,8.18
2023-01-17T15:13:57.668Z,8.08
2023-01-17T15:16:27.505Z,7.99
2023-01-17T15:18:57.763Z,7.90
2023-01-17T15:21:42.530Z,7.81
2023-01-17T15:24:21.691Z,7.70
2023-01-17T15:26:50.413Z,7.63
2023-01-17T15:29:27.054Z,7.59
2023-01-17T15:32:00.788Z,7.53
2023-01-17T15:34:40.976Z,7.47
2023-01-17T15:37:30.975Z,7.40
2023-01-17T15:40:26.839Z,7.32
2023-01-17T15:43:01.181Z,7.24
2023-01-17T15:45:33.857Z,7.21
2023-01-17T15:48:36.696Z,7.20
2023-01-17T15:51:06.348Z,7.22
2023-01-17T15:53:38.923Z,7.23
2023-01-17T15:56:32.009Z,7.23
2023-01-17T15:59:20.928Z,7.22
2023-01-17T16:01:56.412Z,7.21
2023-01-17T16:04:33.737Z,7.20
2023-01-17T16:07:35.567Z,7.20
2023-01-17T16:10:15.674Z,7.23
2023-01-17T16:12:53.402Z,7.24
2023-01-17T16:15:26.010Z,7.24
2023-01-17T16:18:16.872Z,7.24
2023-01-17T16:20:55.305Z,7.23
2023-01-17T16:23:29.147Z,7.22
2023-01-17T16:26:00.817Z,7.24
2023-01-17T16:28:30.227Z,7.27
2023-01-17T16:30:58.732Z,7.33
2023-01-17T16:33:27.294Z,7.37
2023-01-17T16:35:56.136Z,7.41
2023-01-17T16:38:24.651Z,7.45
2023-01-17T16:40:54.274Z,7.48
2023-01-17T16:43:23.749Z,7.51
2023-01-17T16:45:54.310Z,7.54
2023-01-17T16:48:22.923Z,7.58
2023-01-17T16:50:54.027Z,7.63
2023-01-17T16:53:25.582Z,7.66
2023-01-17T16:55:57.744Z,7.67
2023-01-17T16:58:26.325Z,7.67
2023-01-17T17:00:56.752Z,7.66
2023-01-17T17:03:25.588Z,7.65
2023-01-17T17:05:59.887Z,7.63
2023-01-17T17:08:29.698Z,7.61
2023-01-17T17:11:14.863Z,7.60
2023-01-17T17:13:46.929Z,7.61
2023-01-17T17:16:22.012Z,7.64
2023-01-17T17:19:06.091Z,7.65
2023-01-17T17:21:35.539Z,7.66
2023-01-17T17:24:04.549Z,7.66
2023-01-17T17:26:36.472Z,7.66
2023-01-17T17:29:06.819Z,7.65
2023-01-17T17:31:35.450Z,7.64
2023-01-17T17:34:09.291Z,7.62
2023-01-17T17:36:39.038Z,7.59
2023-01-17T17:39:11.707Z,7.59
2023-01-17T17:41:43.152Z,7.60
2023-01-17T17:44:18.559Z,7.59
2023-01-17T17:46:50.100Z,7.57
2023-01-17T17:49:18.613Z,7.54
2023-01-17T17:51:48.264Z,7.50
2023-01-17T17:54:20.125Z,7.47
2023-01-17T17:56:49.637Z,7.44
2023-01-17T17:59:19.681Z,7.39
2023-01-17T18:01:48.899Z,7.35
2023-01-17T18:04:19.244Z,7.33
2023-01-17T18:06:48.019Z,7.33
2023-01-17T18:09:17.883Z,7.33
2023-01-17T18:11:46.258Z,7.32
2023-01-17T18:14:15.886Z,7.30
2023-01-17T18:16:45.027Z,7.28
2023-01-17T18:19:40.331Z,7.24
2023-01-17T18:22:08.897Z,7.19
2023-01-17T18:24:37.664Z,7.18
2023-01-17T18:27:06.601Z,7.19
2023-01-17T18:29:35.637Z,7.17
2023-01-17T18:32:04.251Z,7.13
2023-01-17T18:34:34.907Z,7.10
2023-01-17T18:37:03.383Z,7.03
2023-01-17T18:39:32.398Z,6.97
2023-01-17T18:42:01.363Z,6.94
2023-01-17T18:44:30.538Z,6.88
2023-01-17T18:47:04.592Z,6.86
2023-01-17T18:49:34.345Z,6.84
2023-01-17T18:52:03.711Z,6.80
2023-01-17T18:54:32.971Z,6.76
2023-01-17T18:57:07.790Z,6.72
2023-01-17T18:59:36.984Z,6.69
2023-01-17T19:02:07.159Z,6.68
2023-01-17T19:04:38.050Z,6.68
2023-01-17T19:07:12.526Z,6.68
2023-01-17T19:09:41.894Z,6.68
2023-01-17T19:12:11.036Z,6.65
2023-01-17T19:14:40.133Z,6.60
2023-01-17T19:17:09.310Z,6.56
2023-01-17T19:19:41.436Z,6.50
2023-01-17T19:22:10.694Z,6.48
2023-01-17T19:24:40.701Z,6.48
2023-01-17T19:27:21.249Z,6.47
2023-01-17T19:29:50.527Z,6.45
2023-01-17T19:32:19.681Z,6.38
2023-01-17T19:34:51.530Z,6.31
2023-01-17T19:37:20.745Z,6.27
2023-01-17T19:39:51.785Z,6.23
2023-01-17T19:42:23.497Z,6.21
2023-01-17T19:44:52.716Z,6.18
2023-01-17T19:47:22.004Z,6.16
2023-01-17T19:49:51.152Z,6.13
2023-01-17T19:52:22.359Z,6.07
2023-01-17T19:54:52.167Z,6.06
2023-01-17T19:57:24.483Z,6.07
2023-01-17T19:59:54.699Z,6.08
2023-01-17T20:02:23.941Z,6.07
2023-01-17T20:04:53.261Z,6.07
2023-01-17T20:07:23.150Z,6.05
2023-01-17T20:09:52.229Z,6.05
2023-01-17T20:12:21.283Z,6.08
2023-01-17T20:14:52.259Z,6.09
2023-01-17T20:17:21.736Z,6.09
2023-01-17T20:19:50.944Z,6.04
2023-01-17T20:22:21.790Z,5.99
2023-01-17T20:24:51.165Z,5.98
2023-01-17T20:27:26.730Z,5.97
2023-01-17T20:29:56.687Z,5.97
2023-01-17T20:32:25.718Z,5.96
2023-01-17T20:34:55.043Z,5.93
2023-01-17T20:37:24.073Z,5.91
2023-01-17T20:39:54.317Z,5.91
2023-01-17T20:42:23.667Z,5.92
2023-01-17T20:44:52.831Z,5.95
2023-01-17T20:47:22.304Z,5.96
2023-01-17T20:49:51.370Z,5.97
2023-01-17T20:52:20.547Z,5.97
2023-01-17T20:54:50.423Z,5.99
2023-01-17T20:57:20.296Z,6.00
2023-01-17T20:59:49.469Z,6.01
2023-01-17T21:02:21.343Z,6.03
2023-01-17T21:04:50.517Z,6.03
2023-01-17T21:07:20.493Z,5.99
2023-01-17T21:09:49.859Z,5.96
2023-01-17T21:12:19.180Z,5.93
2023-01-17T21:14:48.480Z,5.92
2023-01-17T21:17:18.827Z,5.90
2023-01-17T21:19:47.730Z,5.88
2023-01-17T21:22:17.180Z,5.87
2023-01-17T21:24:45.940Z,5.84
2023-01-17T21:27:17.156Z,5.83
2023-01-17T21:29:45.842Z,5.83
2023-01-17T21:32:14.793Z,5.83
2023-01-17T21:34:43.421Z,5.85
2023-01-17T21:37:12.774Z,5.87
2023-01-17T21:39:42.273Z,5.86
2023-01-17T21:42:13.591Z,5.84
2023-01-17T21:44:49.578Z,5.79
2023-01-17T21:47:18.338Z,5.79
2023-01-17T21:49:46.996Z,5.84
2023-01-17T21:52:18.470Z,5.84
2023-01-17T21:55:05.582Z,5.79
2023-01-17T21:57:52.570Z,5.77
2023-01-17T22:00:26.220Z,5.81
2023-01-17T22:02:54.953Z,5.85
2023-01-17T22:05:24.337Z,5.92
2023-01-17T22:08:11.562Z,5.96
2023-01-17T22:10:47.178Z,5.99
2023-01-17T22:13:19.968Z,6.01
2023-01-17T22:15:58.616Z,6.02
2023-01-17T22:18:28.059Z,6.04
2023-01-17T22:20:57.843Z,6.03
2023-01-17T22:23:27.024Z,6.03
2023-01-17T22:26:02.781Z,6.03
2023-01-17T22:28:33.725Z,6.03
2023-01-17T22:31:17.278Z,6.06
2023-01-17T22:33:47.781Z,6.11
2023-01-17T22:36:16.492Z,6.16
2023-01-17T22:38:45.348Z,6.19
2023-01-17T22:41:16.644Z,6.19
2023-01-17T22:43:48.154Z,6.19
2023-01-17T22:46:19.322Z,6.19
2023-01-17T22:48:48.257Z,6.21
2023-01-17T22:51:18.863Z,6.25
2023-01-17T22:53:53.075Z,6.29
2023-01-17T22:56:27.643Z,6.32
2023-01-17T22:58:56.496Z,6.33
2023-01-17T23:01:28.459Z,6.33
2023-01-17T23:04:02.194Z,6.32
2023-01-17T23:06:36.111Z,6.35
2023-01-17T23:09:10.913Z,6.39
2023-01-17T23:11:50.048Z,6.40
2023-01-17T23:14:27.083Z,6.37
2023-01-17T23:17:16.121Z,6.36
2023-01-17T23:19:56.826Z,6.34
2023-01-17T23:22:27.280Z,6.28
2023-01-17T23:24:55.913Z,6.24
2023-01-17T23:28:00.020Z,6.19
2023-01-17T23:30:29.296Z,6.15
2023-01-17T23:33:00.113Z,6.10
2023-01-17T23:35:31.882Z,6.08
2023-01-17T23:38:22.442Z,6.05
2023-01-17T23:41:10.155Z,6.01
2023-01-17T23:43:38.769Z,5.99
2023-01-17T23:46:12.481Z,6.02
2023-01-17T23:48:41.140Z,6.03
2023-01-17T23:51:09.788Z,6.04
2023-01-17T23:53:39.500Z,6.05
2023-01-17T23:56:16.637Z,6.01
2023-01-17T23:58:50.985Z,6.02
